Terminal Aerodrome Forecast
Issued by NWS Pittsburgh, PA

Current Version | Previous Version | Text Only | Print | Product List | Glossary Off
Versions: 1 2 3 4 5 6 7 8 9 10 11 12 13 14 15 16 17 18 19 20 21 22 23 24 25 26 27 28 29 30 31 32 33 34 35 36 37

312
FTUS41 KPBZ 281731
TAFPIT
TAF
KPIT 281731Z 2818/2924 07005KT P6SM BKN004 OVC015
     FM282000 08007KT P6SM BKN010
     FM290200 VRB04KT P6SM OVC008
     FM290600 VRB03KT P6SM OVC004
     FM291500 VRB03KT P6SM OVC008
     FM291900 VRB04KT P6SM BKN015
     FM292100 31007KT P6SM BKN025=

USA.gov is the U.S. government's official web portal to all federal, state and local government web resources and services.